Time;durP1;ratioP1;P1;durP2;ratioP2;P2;SDS_P1;SDS_P2;PMS_P1;PMS_P2;Temp;Humidity;BMP_temperature;BMP_pressure;BME280_temperature;BME280_humidity;BME280_pressure;Samples;Min_cycle;Max_cycle;Signal;HPM_P1;HPM_P2
2023/11/30 00:01:56;;;;;;;4.38;3.45;;;;;;;;;;5038803;23;20553;-70
2023/11/30 00:04:42;;;;;;;4.75;4.22;;;;;;;;;;5031875;28;20030;-70
2023/11/30 00:07:27;;;;;;;12.98;4.45;;;;;;;;;;5031894;28;20017;-70
2023/11/30 00:10:13;;;;;;;8.18;4.63;;;;;;;;;;5032434;28;20026;-69
2023/11/30 00:12:59;;;;;;;6.53;3.50;;;;;;;;;;5027396;28;20064;-70
2023/11/30 00:15:44;;;;;;;9.05;4.97;;;;;;;;;;5010380;28;20654;-70
2023/11/30 00:18:30;;;;;;;6.05;4.18;;;;;;;;;;5013185;28;20132;-70
2023/11/30 00:21:15;;;;;;;5.07;4.25;;;;;;;;;;5024831;28;20072;-70
2023/11/30 00:24:01;;;;;;;4.72;3.00;;;;;;;;;;5031581;28;20053;-70
2023/11/30 00:26:47;;;;;;;5.82;3.03;;;;;;;;;;5015762;28;20054;-70
2023/11/30 00:29:32;;;;;;;7.25;3.58;;;;;;;;;;4993843;28;20030;-70
2023/11/30 00:32:18;;;;;;;11.00;6.45;;;;;;;;;;5001571;28;20593;-70
2023/11/30 00:35:04;;;;;;;5.05;4.07;;;;;;;;;;5033500;28;20026;-69
2023/11/30 00:37:49;;;;;;;5.72;3.63;;;;;;;;;;5033544;28;20024;-70
2023/11/30 00:40:37;;;;;;;7.25;3.67;;;;;;;;;;5031751;28;20053;-69
2023/11/30 00:43:23;;;;;;;6.30;3.35;;;;;;;;;;5031682;28;20056;-69
2023/11/30 00:46:13;;;;;;;4.03;3.60;;;;;;;;;;4998481;28;20026;-70
2023/11/30 00:48:59;;;;;;;6.32;4.88;;;;;;;;;;4992310;28;20022;-69
2023/11/30 00:51:45;;;;;;;5.03;4.30;;;;;;;;;;5018530;28;20085;-70
2023/11/30 00:54:30;;;;;;;3.72;2.58;;;;;;;;;;5012430;28;20021;-70
2023/11/30 00:57:16;;;;;;;7.43;4.90;;;;;;;;;;5005797;28;20510;-70
2023/11/30 01:00:03;;;;;;;6.40;3.75;;;;;;;;;;5026613;28;20371;-70
2023/11/30 01:02:49;;;;;;;9.63;4.60;;;;;;;;;;5018653;28;20094;-69
2023/11/30 01:05:35;;;;;;;4.72;3.45;;;;;;;;;;5025117;28;20030;-70
2023/11/30 01:08:20;;;;;;;4.38;3.97;;;;;;;;;;5010341;28;20491;-70
2023/11/30 01:11:06;;;;;;;10.15;6.40;;;;;;;;;;5031123;28;20048;-70
2023/11/30 01:13:52;;;;;;;8.13;5.78;;;;;;;;;;5004801;28;20026;-70
2023/11/30 01:16:37;;;;;;;22.10;6.28;;;;;;;;;;5008784;28;20026;-70
2023/11/30 01:19:23;;;;;;;7.25;4.05;;;;;;;;;;4992776;28;20061;-69
2023/11/30 01:22:09;;;;;;;4.55;4.05;;;;;;;;;;5000452;28;20076;-70
2023/11/30 01:24:54;;;;;;;5.25;4.55;;;;;;;;;;4994173;28;20029;-70
2023/11/30 01:27:40;;;;;;;4.68;3.97;;;;;;;;;;5004089;28;20069;-70
2023/11/30 01:30:26;;;;;;;5.35;3.80;;;;;;;;;;5011627;28;20559;-70
2023/11/30 01:33:11;;;;;;;8.07;4.15;;;;;;;;;;4997920;28;20018;-70
2023/11/30 01:35:57;;;;;;;5.57;5.07;;;;;;;;;;4992727;28;20026;-70
2023/11/30 01:38:42;;;;;;;7.43;5.20;;;;;;;;;;5009561;28;20022;-70
2023/11/30 01:41:28;;;;;;;6.45;5.53;;;;;;;;;;5011733;28;20410;-69
2023/11/30 01:44:14;;;;;;;9.02;6.72;;;;;;;;;;5012118;28;20022;-69
2023/11/30 01:47:00;;;;;;;13.00;7.57;;;;;;;;;;5011545;28;20022;-70
2023/11/30 01:49:45;;;;;;;7.63;5.93;;;;;;;;;;5012254;28;20510;-69
2023/11/30 01:52:31;;;;;;;12.50;6.13;;;;;;;;;;5012133;28;20399;-69
2023/11/30 01:55:17;;;;;;;7.43;5.75;;;;;;;;;;5013313;28;20021;-69
2023/11/30 01:58:04;;;;;;;8.95;5.78;;;;;;;;;;5016185;28;20029;-69
2023/11/30 02:00:50;;;;;;;12.48;4.25;;;;;;;;;;5001661;28;20084;-69
2023/11/30 02:03:36;;;;;;;10.23;6.57;;;;;;;;;;5015240;28;20036;-69
2023/11/30 02:06:21;;;;;;;10.88;5.43;;;;;;;;;;5016725;28;20018;-69
2023/11/30 02:09:07;;;;;;;9.00;4.68;;;;;;;;;;5016144;28;20479;-69
2023/11/30 02:11:53;;;;;;;11.10;4.68;;;;;;;;;;5001438;28;20025;-69
2023/11/30 02:14:38;;;;;;;12.48;5.93;;;;;;;;;;5000729;28;20502;-69
2023/11/30 02:17:24;;;;;;;7.93;3.95;;;;;;;;;;5016035;28;20030;-69
2023/11/30 02:20:10;;;;;;;9.32;6.10;;;;;;;;;;5016148;28;20026;-69
2023/11/30 02:22:56;;;;;;;8.40;7.22;;;;;;;;;;5016873;28;20030;-69
2023/11/30 02:25:41;;;;;;;10.27;5.35;;;;;;;;;;5015155;28;20017;-69
2023/11/30 02:28:27;;;;;;;12.70;6.05;;;;;;;;;;5015774;28;20491;-69
2023/11/30 02:31:13;;;;;;;9.60;7.00;;;;;;;;;;5015184;28;20095;-69
2023/11/30 02:33:58;;;;;;;4.90;3.97;;;;;;;;;;4988442;28;20030;-69
2023/11/30 02:36:44;;;;;;;8.85;5.80;;;;;;;;;;5001333;28;20088;-69
2023/11/30 02:39:30;;;;;;;4.47;3.72;;;;;;;;;;5015202;28;20101;-69
2023/11/30 02:42:16;;;;;;;5.53;4.00;;;;;;;;;;5001539;28;20021;-69
2023/11/30 02:45:01;;;;;;;6.63;3.85;;;;;;;;;;5016363;28;20030;-69
2023/11/30 02:47:47;;;;;;;10.82;6.47;;;;;;;;;;5015426;28;20029;-69
2023/11/30 02:50:32;;;;;;;13.25;5.57;;;;;;;;;;5015050;28;20041;-69
2023/11/30 02:53:18;;;;;;;9.85;5.78;;;;;;;;;;5014943;28;20061;-70
2023/11/30 02:56:04;;;;;;;6.80;3.75;;;;;;;;;;5015803;28;20055;-70
2023/11/30 02:58:50;;;;;;;8.48;5.80;;;;;;;;;;5015979;28;20068;-69
2023/11/30 03:01:42;;;;;;;6.90;6.13;;;;;;;;;;5014021;28;20026;-70
2023/11/30 03:04:28;;;;;;;6.63;4.43;;;;;;;;;;5001393;28;20099;-70
2023/11/30 03:07:14;;;;;;;13.55;8.57;;;;;;;;;;5014493;28;20057;-70
2023/11/30 03:09:59;;;;;;;7.70;2.75;;;;;;;;;;5014910;28;20033;-69
2023/11/30 03:12:45;;;;;;;8.20;4.25;;;;;;;;;;5014755;28;20061;-69
2023/11/30 03:15:31;;;;;;;9.07;5.28;;;;;;;;;;5015079;28;20430;-69
2023/11/30 03:18:16;;;;;;;12.63;5.32;;;;;;;;;;5014808;28;20022;-69
2023/11/30 03:21:02;;;;;;;7.10;5.60;;;;;;;;;;5000154;28;20114;-69
2023/11/30 03:23:49;;;;;;;9.05;5.85;;;;;;;;;;5015859;28;20030;-69
2023/11/30 03:26:35;;;;;;;7.45;3.40;;;;;;;;;;5000829;28;20380;-69
2023/11/30 03:29:20;;;;;;;10.57;5.80;;;;;;;;;;5013672;28;20112;-69
2023/11/30 03:32:06;;;;;;;5.35;4.63;;;;;;;;;;5001084;28;20022;-69
2023/11/30 03:34:52;;;;;;;10.32;7.25;;;;;;;;;;5014776;28;20030;-69
2023/11/30 03:37:40;;;;;;;8.43;4.20;;;;;;;;;;5000851;28;20561;-69
2023/11/30 03:40:25;;;;;;;6.28;5.22;;;;;;;;;;5013642;28;20030;-69
2023/11/30 03:43:11;;;;;;;7.13;4.07;;;;;;;;;;5014448;28;20026;-69
2023/11/30 03:45:57;;;;;;;7.80;4.03;;;;;;;;;;4999860;28;20026;-69
2023/11/30 03:48:42;;;;;;;7.90;3.58;;;;;;;;;;4999554;28;20029;-69
2023/11/30 03:51:28;;;;;;;7.32;4.40;;;;;;;;;;5013662;28;20030;-69
2023/11/30 03:54:14;;;;;;;17.10;5.47;;;;;;;;;;5014399;28;20108;-69
2023/11/30 03:56:59;;;;;;;10.57;5.95;;;;;;;;;;5014238;28;20022;-69
2023/11/30 03:59:45;;;;;;;5.35;4.78;;;;;;;;;;5014322;28;20018;-69
2023/11/30 04:02:30;;;;;;;10.07;4.78;;;;;;;;;;5012943;28;20030;-70
2023/11/30 04:05:16;;;;;;;9.45;3.80;;;;;;;;;;5013815;28;20548;-69
2023/11/30 04:08:02;;;;;;;7.10;4.35;;;;;;;;;;5014682;28;20476;-69
2023/11/30 04:10:48;;;;;;;9.00;4.40;;;;;;;;;;5013775;28;20470;-69
2023/11/30 04:13:33;;;;;;;5.90;4.03;;;;;;;;;;5013177;28;20483;-69
2023/11/30 04:16:19;;;;;;;8.27;3.85;;;;;;;;;;5014053;28;20022;-69
2023/11/30 04:19:05;;;;;;;7.15;4.03;;;;;;;;;;5012902;28;20083;-69
2023/11/30 04:21:50;;;;;;;6.70;3.78;;;;;;;;;;5013107;28;20022;-69
2023/11/30 04:24:36;;;;;;;10.75;5.75;;;;;;;;;;5013702;28;20113;-69
2023/11/30 04:27:21;;;;;;;11.95;5.53;;;;;;;;;;5013791;28;20041;-69
2023/11/30 04:30:07;;;;;;;4.32;3.63;;;;;;;;;;5013721;28;20395;-69
2023/11/30 04:32:53;;;;;;;7.65;6.93;;;;;;;;;;5013516;28;20083;-69
2023/11/30 04:35:39;;;;;;;9.38;6.80;;;;;;;;;;5013343;28;20033;-69
2023/11/30 04:38:24;;;;;;;8.23;4.65;;;;;;;;;;5011137;28;20049;-70
2023/11/30 04:41:10;;;;;;;10.25;7.22;;;;;;;;;;5005546;28;20449;-70
2023/11/30 04:43:56;;;;;;;15.38;7.43;;;;;;;;;;4997900;28;20034;-69
2023/11/30 04:46:41;;;;;;;5.85;5.20;;;;;;;;;;5005247;28;20057;-70
2023/11/30 04:49:27;;;;;;;6.93;5.25;;;;;;;;;;5013182;28;20173;-69
2023/11/30 04:52:12;;;;;;;6.30;4.70;;;;;;;;;;5020417;28;20495;-69
2023/11/30 04:54:58;;;;;;;7.00;4.50;;;;;;;;;;4998019;28;20052;-69
2023/11/30 04:57:44;;;;;;;6.20;3.90;;;;;;;;;;5012111;28;20022;-69
2023/11/30 05:00:29;;;;;;;4.18;3.83;;;;;;;;;;4998398;28;20026;-69
2023/11/30 05:03:16;;;;;;;11.30;3.97;;;;;;;;;;5019516;28;20033;-70
2023/11/30 05:06:02;;;;;;;11.18;4.55;;;;;;;;;;4992334;28;20399;-69
2023/11/30 05:08:47;;;;;;;12.13;6.65;;;;;;;;;;4990551;28;20502;-70
2023/11/30 05:11:33;;;;;;;12.93;5.13;;;;;;;;;;5012345;28;20029;-69
2023/11/30 05:14:19;;;;;;;12.25;6.45;;;;;;;;;;5006562;28;20112;-70
2023/11/30 05:17:04;;;;;;;6.30;4.45;;;;;;;;;;5030853;28;20028;-70
2023/11/30 05:19:50;;;;;;;8.38;4.28;;;;;;;;;;5016647;28;20494;-70
2023/11/30 05:22:35;;;;;;;13.13;5.65;;;;;;;;;;5003866;28;20029;-70
2023/11/30 05:25:21;;;;;;;10.05;5.47;;;;;;;;;;5031055;28;20025;-69
2023/11/30 05:28:07;;;;;;;9.82;5.60;;;;;;;;;;5031788;28;20394;-69
2023/11/30 05:30:52;;;;;;;17.40;5.40;;;;;;;;;;5032325;28;20076;-69
2023/11/30 05:33:39;;;;;;;5.43;4.63;;;;;;;;;;5030816;28;20487;-70
2023/11/30 05:36:24;;;;;;;8.52;6.18;;;;;;;;;;5032008;28;20056;-69
2023/11/30 05:39:10;;;;;;;14.43;5.50;;;;;;;;;;5016172;28;20524;-69
2023/11/30 05:41:57;;;;;;;8.43;4.07;;;;;;;;;;4993598;28;20415;-69
2023/11/30 05:44:43;;;;;;;6.97;4.97;;;;;;;;;;4980208;28;20041;-70
2023/11/30 05:47:28;;;;;;;10.88;6.18;;;;;;;;;;4992562;28;20491;-69
2023/11/30 05:50:14;;;;;;;6.70;4.22;;;;;;;;;;5020640;28;20431;-70
2023/11/30 05:53:01;;;;;;;10.82;4.95;;;;;;;;;;5030887;28;20021;-70
2023/11/30 05:55:47;;;;;;;11.02;4.40;;;;;;;;;;5018221;28;20375;-69
2023/11/30 05:58:32;;;;;;;8.32;4.80;;;;;;;;;;4992113;28;20023;-70
2023/11/30 06:01:18;;;;;;;5.38;4.00;;;;;;;;;;5003433;28;20022;-70
2023/11/30 06:04:04;;;;;;;5.18;4.10;;;;;;;;;;5054898;23;20045;-68
2023/11/30 06:06:50;;;;;;;5.55;4.22;;;;;;;;;;5031670;28;20445;-68
2023/11/30 06:09:35;;;;;;;9.35;4.65;;;;;;;;;;5017940;28;20022;-68
2023/11/30 06:12:21;;;;;;;8.13;4.15;;;;;;;;;;5030448;28;20115;-68
2023/11/30 06:15:07;;;;;;;9.25;4.43;;;;;;;;;;5017920;28;20108;-68
2023/11/30 06:17:53;;;;;;;7.60;4.32;;;;;;;;;;5032070;28;20075;-68
2023/11/30 06:20:39;;;;;;;11.45;5.50;;;;;;;;;;5032239;28;20072;-68
2023/11/30 06:23:25;;;;;;;5.95;5.35;;;;;;;;;;4992042;28;20076;-68
2023/11/30 06:26:11;;;;;;;8.85;5.03;;;;;;;;;;4977781;28;20114;-68
2023/11/30 06:28:57;;;;;;;5.50;4.40;;;;;;;;;;4993199;28;20503;-68
2023/11/30 06:31:42;;;;;;;8.35;5.28;;;;;;;;;;4992154;28;20384;-68
2023/11/30 06:34:33;;;;;;;5.93;4.28;;;;;;;;;;5006404;28;20105;-68
2023/11/30 06:37:18;;;;;;;11.52;5.90;;;;;;;;;;5011983;28;20522;-68
2023/11/30 06:40:05;;;;;;;6.57;5.22;;;;;;;;;;5023764;28;20025;-68
2023/11/30 06:42:51;;;;;;;8.43;4.47;;;;;;;;;;5021787;28;20025;-68
2023/11/30 06:45:36;;;;;;;4.75;4.35;;;;;;;;;;5018215;28;20376;-68
2023/11/30 06:48:24;;;;;;;5.75;4.13;;;;;;;;;;4995393;28;20092;-68
2023/11/30 06:51:10;;;;;;;6.15;4.45;;;;;;;;;;4984534;28;20022;-68
2023/11/30 06:53:56;;;;;;;7.80;5.07;;;;;;;;;;4996401;28;20519;-68
2023/11/30 06:56:41;;;;;;;6.93;4.13;;;;;;;;;;4998054;28;20503;-68
2023/11/30 06:59:27;;;;;;;12.00;4.70;;;;;;;;;;5033484;28;20545;-68
2023/11/30 07:02:13;;;;;;;8.25;4.65;;;;;;;;;;5035498;28;20109;-68
2023/11/30 07:04:58;;;;;;;5.20;3.70;;;;;;;;;;5035366;28;20462;-68
2023/11/30 07:07:44;;;;;;;4.72;3.50;;;;;;;;;;5033056;28;20022;-68
2023/11/30 07:10:29;;;;;;;5.68;4.65;;;;;;;;;;5018174;28;20084;-68
2023/11/30 07:13:16;;;;;;;4.28;3.92;;;;;;;;;;5015078;28;20033;-68
2023/11/30 07:16:02;;;;;;;7.63;4.70;;;;;;;;;;5015587;28;20032;-68
2023/11/30 07:18:48;;;;;;;6.60;5.10;;;;;;;;;;4998615;28;20087;-68
2023/11/30 07:21:33;;;;;;;6.80;4.05;;;;;;;;;;5014047;28;20517;-68
2023/11/30 07:24:19;;;;;;;8.60;5.97;;;;;;;;;;5013588;28;20037;-68
2023/11/30 07:27:04;;;;;;;8.52;4.80;;;;;;;;;;4995643;28;20037;-68
2023/11/30 07:29:50;;;;;;;8.32;6.28;;;;;;;;;;4981053;28;20022;-69
2023/11/30 07:32:36;;;;;;;11.88;6.18;;;;;;;;;;5028571;28;20040;-68
2023/11/30 07:35:22;;;;;;;23.70;7.75;;;;;;;;;;5034428;28;20081;-68
2023/11/30 07:38:07;;;;;;;16.65;7.65;;;;;;;;;;5033362;28;20079;-68
2023/11/30 07:40:53;;;;;;;22.48;8.85;;;;;;;;;;5001125;28;20396;-68
2023/11/30 07:43:39;;;;;;;26.27;8.80;;;;;;;;;;5007765;28;20482;-68
2023/11/30 07:46:24;;;;;;;9.68;5.75;;;;;;;;;;4995419;28;20407;-68
2023/11/30 07:49:11;;;;;;;9.05;5.78;;;;;;;;;;4999010;28;20045;-68
2023/11/30 07:51:56;;;;;;;13.23;6.10;;;;;;;;;;5014719;28;20030;-68
2023/11/30 07:54:42;;;;;;;5.85;5.32;;;;;;;;;;5014370;28;20029;-68
2023/11/30 07:57:27;;;;;;;4.13;3.45;;;;;;;;;;5019319;28;20386;-67
2023/11/30 08:00:15;;;;;;;11.18;6.20;;;;;;;;;;5033208;28;20053;-68
2023/11/30 08:03:01;;;;;;;15.82;6.15;;;;;;;;;;5019617;28;20037;-68
2023/11/30 08:05:47;;;;;;;7.80;4.68;;;;;;;;;;5034066;28;20049;-68
2023/11/30 08:08:32;;;;;;;7.40;4.18;;;;;;;;;;5033392;28;20022;-68
2023/11/30 08:11:19;;;;;;;7.93;5.40;;;;;;;;;;4993973;28;20030;-68
2023/11/30 08:14:05;;;;;;;7.97;4.65;;;;;;;;;;4994244;28;20503;-68
2023/11/30 08:16:51;;;;;;;6.18;5.63;;;;;;;;;;5012615;28;20041;-68
2023/11/30 08:19:36;;;;;;;7.95;4.25;;;;;;;;;;5013644;28;20021;-68
2023/11/30 08:22:22;;;;;;;15.57;5.30;;;;;;;;;;5013858;28;20088;-68
2023/11/30 08:25:08;;;;;;;11.90;4.57;;;;;;;;;;4998963;28;20053;-68
2023/11/30 08:27:53;;;;;;;14.80;6.40;;;;;;;;;;5004694;28;20108;-68
2023/11/30 08:30:41;;;;;;;13.57;5.18;;;;;;;;;;5013550;28;20030;-68
2023/11/30 08:33:28;;;;;;;5.93;3.78;;;;;;;;;;5013865;28;20032;-69
2023/11/30 08:36:13;;;;;;;7.95;4.82;;;;;;;;;;5014108;28;20025;-68
2023/11/30 08:38:59;;;;;;;14.18;5.80;;;;;;;;;;5013406;28;20502;-68
2023/11/30 08:41:45;;;;;;;5.22;3.75;;;;;;;;;;5013768;28;20029;-68
2023/11/30 08:44:34;;;;;;;14.25;5.97;;;;;;;;;;5012687;28;20033;-68
2023/11/30 08:47:20;;;;;;;12.18;4.43;;;;;;;;;;5013704;28;20060;-69
2023/11/30 08:50:06;;;;;;;9.23;5.35;;;;;;;;;;5013386;28;20030;-68
2023/11/30 08:52:53;;;;;;;10.68;5.03;;;;;;;;;;5032335;28;20055;-69
2023/11/30 08:55:38;;;;;;;8.60;4.43;;;;;;;;;;5033337;28;20495;-68
2023/11/30 08:58:25;;;;;;;6.72;5.20;;;;;;;;;;5032521;28;20032;-68
2023/11/30 09:01:10;;;;;;;9.85;5.30;;;;;;;;;;5018696;28;20032;-68
2023/11/30 09:04:03;;;;;;;10.38;5.07;;;;;;;;;;5020500;28;20403;-68
2023/11/30 09:06:49;;;;;;;4.45;4.07;;;;;;;;;;5011928;28;20028;-68
2023/11/30 09:09:34;;;;;;;8.25;7.50;;;;;;;;;;5000401;28;20069;-68
2023/11/30 09:12:20;;;;;;;11.75;5.55;;;;;;;;;;4991373;28;20131;-68
2023/11/30 09:15:08;;;;;;;9.93;5.88;;;;;;;;;;5023663;28;20044;-68
2023/11/30 09:17:56;;;;;;;8.32;6.20;;;;;;;;;;5012268;28;20037;-68
2023/11/30 09:20:42;;;;;;;10.73;6.32;;;;;;;;;;4998309;28;20562;-68
2023/11/30 09:23:29;;;;;;;8.60;5.28;;;;;;;;;;5011772;28;20431;-68
2023/11/30 09:26:15;;;;;;;19.15;6.85;;;;;;;;;;5014595;28;20542;-68
2023/11/30 09:29:00;;;;;;;11.80;5.35;;;;;;;;;;5006808;28;20407;-68
2023/11/30 09:31:46;;;;;;;10.10;4.68;;;;;;;;;;5009684;28;20042;-68
2023/11/30 09:34:32;;;;;;;9.23;5.30;;;;;;;;;;4991863;28;20108;-68
2023/11/30 09:37:17;;;;;;;5.30;4.82;;;;;;;;;;5005957;28;20384;-68
2023/11/30 09:40:05;;;;;;;11.88;5.55;;;;;;;;;;4997148;28;20034;-68
2023/11/30 09:42:51;;;;;;;11.27;5.20;;;;;;;;;;4991667;28;20027;-68
2023/11/30 09:45:37;;;;;;;6.43;4.40;;;;;;;;;;4982769;28;20492;-68
2023/11/30 09:48:23;;;;;;;8.90;6.25;;;;;;;;;;4992208;28;20439;-68
2023/11/30 09:51:10;;;;;;;14.90;7.70;;;;;;;;;;5000295;28;20092;-68
2023/11/30 09:53:57;;;;;;;8.75;5.38;;;;;;;;;;4977180;28;20029;-67
2023/11/30 09:56:43;;;;;;;6.88;4.82;;;;;;;;;;4982079;28;20034;-67
2023/11/30 09:59:29;;;;;;;8.05;5.28;;;;;;;;;;4992423;28;20026;-68
2023/11/30 10:02:14;;;;;;;7.07;5.13;;;;;;;;;;4995940;28;20017;-67
2023/11/30 10:05:01;;;;;;;13.27;6.00;;;;;;;;;;5011584;28;20518;-68
2023/11/30 10:07:47;;;;;;;13.23;5.35;;;;;;;;;;5011482;28;20101;-68
2023/11/30 10:10:33;;;;;;;11.63;6.88;;;;;;;;;;4997088;28;20516;-68
2023/11/30 10:13:19;;;;;;;16.27;6.88;;;;;;;;;;5010829;28;20152;-68
2023/11/30 10:16:05;;;;;;;12.45;7.50;;;;;;;;;;5017256;28;20026;-68
2023/11/30 10:18:50;;;;;;;10.82;5.78;;;;;;;;;;5034647;28;20026;-68
2023/11/30 10:21:39;;;;;;;14.02;5.53;;;;;;;;;;5032986;28;20068;-68
2023/11/30 10:24:25;;;;;;;10.82;7.57;;;;;;;;;;5020174;28;20045;-68
2023/11/30 10:27:12;;;;;;;20.25;8.98;;;;;;;;;;5021622;28;20026;-68
2023/11/30 10:30:01;;;;;;;13.25;7.72;;;;;;;;;;5020788;28;20560;-68
2023/11/30 10:32:48;;;;;;;12.43;7.18;;;;;;;;;;5025879;28;20443;-68
2023/11/30 10:35:35;;;;;;;18.25;7.80;;;;;;;;;;4999851;28;20022;-68
2023/11/30 10:38:27;;;;;;;13.00;6.85;;;;;;;;;;5005450;28;20017;-68
2023/11/30 10:41:19;;;;;;;18.25;8.18;;;;;;;;;;5034800;28;20407;-68
2023/11/30 10:44:06;;;;;;;11.20;6.57;;;;;;;;;;5019830;28;20406;-68
2023/11/30 10:46:56;;;;;;;20.50;9.45;;;;;;;;;;5033928;28;20029;-68
2023/11/30 10:49:42;;;;;;;9.77;6.53;;;;;;;;;;5033680;28;20186;-68
2023/11/30 10:52:28;;;;;;;17.85;8.38;;;;;;;;;;5015973;28;20501;-68
2023/11/30 10:55:16;;;;;;;14.52;7.20;;;;;;;;;;4999644;28;20463;-68
2023/11/30 10:58:03;;;;;;;15.55;9.02;;;;;;;;;;5022829;28;20418;-67
2023/11/30 11:00:55;;;;;;;16.40;9.15;;;;;;;;;;4999230;28;20415;-68
2023/11/30 11:03:48;;;;;;;16.73;8.82;;;;;;;;;;4999276;28;20045;-68
2023/11/30 11:06:34;;;;;;;19.50;9.18;;;;;;;;;;4999421;28;20037;-69
2023/11/30 11:09:21;;;;;;;13.77;8.60;;;;;;;;;;5020024;28;20029;-68
2023/11/30 11:12:16;;;;;;;17.38;11.48;;;;;;;;;;5034379;28;20021;-68
2023/11/30 11:15:08;;;;;;;18.35;7.75;;;;;;;;;;5021012;28;20037;-68
2023/11/30 11:18:07;;;;;;;14.43;7.95;;;;;;;;;;4995347;28;20446;-69
2023/11/30 11:20:52;;;;;;;14.70;9.07;;;;;;;;;;4991089;28;20038;-68
2023/11/30 11:23:39;;;;;;;15.20;9.30;;;;;;;;;;4986626;28;20031;-69
2023/11/30 11:26:25;;;;;;;16.85;8.90;;;;;;;;;;5005933;28;20053;-69
2023/11/30 11:29:14;;;;;;;17.73;8.90;;;;;;;;;;5008164;28;20109;-68
2023/11/30 11:32:00;;;;;;;19.55;10.70;;;;;;;;;;5009107;28;20035;-68
2023/11/30 11:34:46;;;;;;;13.25;7.97;;;;;;;;;;4993886;28;20054;-69
2023/11/30 11:37:32;;;;;;;18.70;9.23;;;;;;;;;;5010615;28;20124;-68
2023/11/30 11:40:20;;;;;;;19.90;8.95;;;;;;;;;;5007273;28;20080;-68
2023/11/30 11:43:06;;;;;;;23.05;9.40;;;;;;;;;;5016572;28;20048;-69
2023/11/30 11:45:51;;;;;;;22.63;9.85;;;;;;;;;;5012952;28;20065;-68
2023/11/30 11:48:37;;;;;;;13.30;8.88;;;;;;;;;;5015015;28;20030;-69
2023/11/30 11:51:22;;;;;;;16.55;10.02;;;;;;;;;;5020028;28;20033;-71
2023/11/30 11:54:18;;;;;;;16.40;10.10;;;;;;;;;;5013559;28;20125;-69
2023/11/30 11:57:04;;;;;;;15.30;8.18;;;;;;;;;;4997848;28;20049;-72
2023/11/30 11:59:50;;;;;;;19.95;9.18;;;;;;;;;;5026293;28;20478;-69
2023/11/30 12:02:36;;;;;;;16.67;9.85;;;;;;;;;;5012682;28;20554;-69
2023/11/30 12:05:25;;;;;;;18.55;7.85;;;;;;;;;;5000820;28;20033;-69
2023/11/30 12:08:10;;;;;;;15.63;7.95;;;;;;;;;;5032388;28;20036;-69
2023/11/30 12:10:56;;;;;;;20.58;10.30;;;;;;;;;;5026206;28;20030;-69
2023/11/30 12:13:42;;;;;;;20.45;9.00;;;;;;;;;;4997087;28;20060;-69
2023/11/30 12:16:27;;;;;;;17.08;9.00;;;;;;;;;;5012448;28;20021;-69
2023/11/30 12:19:16;;;;;;;26.27;9.40;;;;;;;;;;5006673;28;20022;-69
2023/11/30 12:22:01;;;;;;;16.25;8.60;;;;;;;;;;5012276;28;20033;-69
2023/11/30 12:24:47;;;;;;;16.17;8.95;;;;;;;;;;5031570;28;20028;-69
2023/11/30 12:27:33;;;;;;;15.02;7.50;;;;;;;;;;5032260;28;20021;-69
2023/11/30 12:30:18;;;;;;;12.82;9.50;;;;;;;;;;5017015;28;20026;-69
2023/11/30 12:33:04;;;;;;;15.30;8.15;;;;;;;;;;5012671;28;20028;-69
2023/11/30 12:35:52;;;;;;;17.00;9.27;;;;;;;;;;5012502;28;20046;-69
2023/11/30 12:38:37;;;;;;;13.95;7.60;;;;;;;;;;5011159;28;20072;-69
2023/11/30 12:41:23;;;;;;;17.20;7.88;;;;;;;;;;5012249;28;20100;-69
2023/11/30 12:44:09;;;;;;;24.85;10.55;;;;;;;;;;5013754;28;20029;-69
2023/11/30 12:46:54;;;;;;;17.27;9.50;;;;;;;;;;5012308;28;20041;-67
2023/11/30 12:49:41;;;;;;;19.13;9.02;;;;;;;;;;5012574;28;20118;-69
2023/11/30 12:52:27;;;;;;;20.73;10.95;;;;;;;;;;5011894;28;20021;-69
2023/11/30 12:55:12;;;;;;;17.95;8.68;;;;;;;;;;5012223;28;20056;-69
2023/11/30 12:57:58;;;;;;;14.88;8.05;;;;;;;;;;5011984;28;20029;-69
2023/11/30 13:00:44;;;;;;;18.42;8.77;;;;;;;;;;5011873;28;20030;-69
2023/11/30 13:03:29;;;;;;;17.55;8.60;;;;;;;;;;5011796;28;20034;-69
2023/11/30 13:06:15;;;;;;;15.13;8.45;;;;;;;;;;5010181;28;20030;-69
2023/11/30 13:09:01;;;;;;;14.32;7.70;;;;;;;;;;4991361;28;20034;-69
2023/11/30 13:11:46;;;;;;;15.43;7.85;;;;;;;;;;5005531;28;20108;-69
2023/11/30 13:14:32;;;;;;;16.55;7.88;;;;;;;;;;4996799;28;20034;-69
2023/11/30 13:17:18;;;;;;;17.52;8.20;;;;;;;;;;5009336;28;20480;-69
2023/11/30 13:20:12;;;;;;;12.45;7.07;;;;;;;;;;4984152;28;20022;-69
2023/11/30 13:22:58;;;;;;;14.10;6.80;;;;;;;;;;4993424;28;20061;-69
2023/11/30 13:25:43;;;;;;;18.83;8.68;;;;;;;;;;5006839;28;20022;-69
2023/11/30 13:28:29;;;;;;;22.73;8.68;;;;;;;;;;4993454;28;20615;-69
2023/11/30 13:31:15;;;;;;;15.85;8.75;;;;;;;;;;5010811;28;20635;-69
2023/11/30 13:34:00;;;;;;;19.60;9.35;;;;;;;;;;5012637;28;20154;-69
2023/11/30 13:36:46;;;;;;;18.30;9.35;;;;;;;;;;5013190;28;20022;-69
2023/11/30 13:39:31;;;;;;;15.85;10.20;;;;;;;;;;5027054;28;20029;-69
2023/11/30 13:42:17;;;;;;;15.75;8.27;;;;;;;;;;5033018;28;20029;-69
2023/11/30 13:45:05;;;;;;;17.13;8.63;;;;;;;;;;5032957;28;20375;-69
2023/11/30 13:47:50;;;;;;;13.05;8.88;;;;;;;;;;5032591;28;20027;-69
2023/11/30 13:50:37;;;;;;;13.88;7.28;;;;;;;;;;5021202;28;20543;-69
2023/11/30 13:53:24;;;;;;;15.77;7.30;;;;;;;;;;5040116;28;20029;-69
2023/11/30 13:56:10;;;;;;;14.90;7.38;;;;;;;;;;5039826;28;20025;-69
2023/11/30 13:58:56;;;;;;;18.33;7.40;;;;;;;;;;5040371;28;20132;-69
2023/11/30 14:01:42;;;;;;;11.95;7.88;;;;;;;;;;5039790;28;20026;-69
2023/11/30 14:04:28;;;;;;;19.00;7.78;;;;;;;;;;5037468;28;20034;-69
2023/11/30 14:07:13;;;;;;;13.68;7.97;;;;;;;;;;5038202;28;20028;-68
2023/11/30 14:10:00;;;;;;;14.98;8.77;;;;;;;;;;5038178;28;20029;-69
2023/11/30 14:12:45;;;;;;;17.23;10.23;;;;;;;;;;5039040;28;20056;-68
2023/11/30 14:15:32;;;;;;;21.55;9.07;;;;;;;;;;5038841;28;20026;-68
2023/11/30 14:18:17;;;;;;;14.35;8.38;;;;;;;;;;5039315;28;20032;-69
2023/11/30 14:21:03;;;;;;;12.60;7.78;;;;;;;;;;5037740;28;20025;-69
2023/11/30 14:23:49;;;;;;;19.38;11.15;;;;;;;;;;5038966;28;20025;-69
2023/11/30 14:26:35;;;;;;;25.17;13.23;;;;;;;;;;5039727;28;20491;-69
2023/11/30 14:29:22;;;;;;;33.30;13.82;;;;;;;;;;5039458;28;20394;-68
2023/11/30 14:32:08;;;;;;;23.85;13.27;;;;;;;;;;5039181;28;20022;-69
2023/11/30 14:34:54;;;;;;;21.88;9.90;;;;;;;;;;5039270;28;20520;-69
2023/11/30 14:37:41;;;;;;;15.88;8.95;;;;;;;;;;5039267;28;20512;-70
2023/11/30 14:40:26;;;;;;;13.30;6.78;;;;;;;;;;5039484;28;20049;-70
2023/11/30 14:43:12;;;;;;;13.30;7.57;;;;;;;;;;5038005;28;20033;-70
2023/11/30 14:45:58;;;;;;;9.23;6.90;;;;;;;;;;5036881;28;20029;-69
2023/11/30 14:48:43;;;;;;;11.00;6.25;;;;;;;;;;5025072;28;20028;-70
2023/11/30 14:51:29;;;;;;;13.55;7.57;;;;;;;;;;5039781;28;20378;-70
2023/11/30 14:54:15;;;;;;;10.20;6.32;;;;;;;;;;5039663;28;20112;-70
2023/11/30 14:57:01;;;;;;;11.05;6.07;;;;;;;;;;5037443;28;20104;-70
2023/11/30 14:59:47;;;;;;;12.55;6.20;;;;;;;;;;5038831;28;20112;-69
2023/11/30 15:02:32;;;;;;;9.95;6.05;;;;;;;;;;5035815;28;20037;-69
2023/11/30 15:05:18;;;;;;;13.68;6.28;;;;;;;;;;5036248;28;20033;-69
2023/11/30 15:08:04;;;;;;;11.10;6.65;;;;;;;;;;5036259;28;20025;-69
2023/11/30 15:10:49;;;;;;;9.95;5.03;;;;;;;;;;5013075;28;20503;-69
2023/11/30 15:13:35;;;;;;;7.68;5.75;;;;;;;;;;5002054;28;20503;-68
2023/11/30 15:16:21;;;;;;;13.55;7.25;;;;;;;;;;4995236;28;20031;-69
2023/11/30 15:19:08;;;;;;;16.00;7.20;;;;;;;;;;4995116;28;20084;-69
2023/11/30 15:21:54;;;;;;;10.23;6.22;;;;;;;;;;4996037;28;20105;-69
2023/11/30 15:24:39;;;;;;;8.50;4.85;;;;;;;;;;4996107;28;20022;-69
2023/11/30 15:27:25;;;;;;;7.63;5.43;;;;;;;;;;4996105;28;20026;-69
2023/11/30 15:30:11;;;;;;;8.63;5.05;;;;;;;;;;4993213;28;20061;-69
2023/11/30 15:32:57;;;;;;;10.07;4.85;;;;;;;;;;5028676;28;20025;-69
2023/11/30 15:35:43;;;;;;;7.53;4.65;;;;;;;;;;5035356;28;20025;-69
2023/11/30 15:38:32;;;;;;;13.50;6.97;;;;;;;;;;5035045;28;20021;-69
2023/11/30 15:41:18;;;;;;;12.43;8.52;;;;;;;;;;4999917;28;20045;-69
2023/11/30 15:44:04;;;;;;;11.45;6.07;;;;;;;;;;5014484;28;20061;-69
2023/11/30 15:46:49;;;;;;;9.25;6.10;;;;;;;;;;5014793;28;20553;-72
2023/11/30 15:49:35;;;;;;;12.73;6.20;;;;;;;;;;5015140;28;20030;-71
2023/11/30 15:52:23;;;;;;;9.90;6.40;;;;;;;;;;5000859;28;20108;-71
2023/11/30 15:55:12;;;;;;;14.45;6.93;;;;;;;;;;5014487;28;20108;-71
2023/11/30 15:57:58;;;;;;;7.78;5.32;;;;;;;;;;4991420;28;20038;-71
2023/11/30 16:00:44;;;;;;;7.35;6.65;;;;;;;;;;4995143;28;20029;-72
2023/11/30 16:03:29;;;;;;;10.55;5.55;;;;;;;;;;4981847;28;20399;-72
2023/11/30 16:06:15;;;;;;;11.15;5.05;;;;;;;;;;4995564;28;20022;-71
2023/11/30 16:09:02;;;;;;;7.20;4.40;;;;;;;;;;4995037;28;20026;-71
2023/11/30 16:11:50;;;;;;;14.10;6.00;;;;;;;;;;4987256;28;20089;-71
2023/11/30 16:14:36;;;;;;;6.10;5.03;;;;;;;;;;4993810;28;20030;-70
2023/11/30 16:17:22;;;;;;;9.73;5.43;;;;;;;;;;4999070;28;20026;-71
2023/11/30 16:20:10;;;;;;;9.65;5.22;;;;;;;;;;4993644;28;20023;-71
2023/11/30 16:22:55;;;;;;;11.13;5.03;;;;;;;;;;4988309;28;20045;-72
2023/11/30 16:25:41;;;;;;;13.60;6.95;;;;;;;;;;4993902;28;20038;-71
2023/11/30 16:28:27;;;;;;;11.88;6.68;;;;;;;;;;5009765;28;20104;-72